Time;durP1;ratioP1;P1;durP2;ratioP2;P2;SDS_P1;SDS_P2;PMS_P1;PMS_P2;Temp;Humidity;BMP_temperature;BMP_pressure;BME280_temperature;BME280_humidity;BME280_pressure;Samples;Min_cycle;Max_cycle;Signal;HPM_P1;HPM_P2
2021/11/10 00:01:53;;;;;;;0.57;0.57;;;5.40;99.90;;;;;;4428338;32;20120;-64
2021/11/10 00:04:20;;;;;;;0.50;0.50;;;5.40;99.90;;;;;;4428710;32;20061;-64
2021/11/10 00:06:46;;;;;;;0.75;0.75;;;5.40;99.90;;;;;;4430103;32;20065;-64
2021/11/10 00:09:12;;;;;;;0.47;0.47;;;5.40;99.90;;;;;;4428565;32;20065;-65
2021/11/10 00:11:37;;;;;;;0.68;0.68;;;5.40;99.90;;;;;;4413848;32;20066;-65
2021/11/10 00:14:03;;;;;;;0.60;0.60;;;5.30;99.90;;;;;;4410932;32;20471;-65
2021/11/10 00:16:30;;;;;;;1.30;1.00;;;5.30;99.90;;;;;;4414209;32;20104;-65
2021/11/10 00:18:56;;;;;;;1.87;1.08;;;5.30;99.90;;;;;;4429525;32;20085;-65
2021/11/10 00:21:23;;;;;;;1.45;1.12;;;5.20;99.90;;;;;;4405393;32;20155;-65
2021/11/10 00:23:48;;;;;;;9.23;1.25;;;5.20;99.90;;;;;;4406800;32;20128;-63
2021/11/10 00:26:14;;;;;;;0.77;0.77;;;5.10;99.90;;;;;;4421692;32;20484;-64
2021/11/10 00:28:40;;;;;;;0.82;0.60;;;4.90;99.90;;;;;;4425434;32;20077;-65
2021/11/10 00:31:06;;;;;;;1.35;1.17;;;4.90;99.90;;;;;;4423817;32;20061;-63
2021/11/10 00:33:32;;;;;;;0.40;0.40;;;4.90;99.90;;;;;;4419643;32;20069;-65
2021/11/10 00:35:57;;;;;;;0.47;0.47;;;4.90;99.90;;;;;;4414761;32;20538;-65
2021/11/10 00:38:23;;;;;;;12.02;0.73;;;5.00;99.90;;;;;;4423673;32;20069;-64
2021/11/10 00:40:49;;;;;;;0.62;0.57;;;5.10;99.90;;;;;;4430861;32;20124;-64
2021/11/10 00:43:14;;;;;;;1.48;1.23;;;5.10;99.90;;;;;;4396928;32;20559;-64
2021/11/10 00:45:40;;;;;;;0.60;0.60;;;5.10;99.90;;;;;;4417128;32;20122;-64
2021/11/10 00:48:06;;;;;;;0.50;0.50;;;5.00;99.90;;;;;;4400931;32;20192;-64
2021/11/10 00:50:33;;;;;;;1.20;1.10;;;5.10;99.90;;;;;;4402432;32;20081;-63
2021/11/10 00:52:58;;;;;;;2.15;1.05;;;5.00;99.90;;;;;;4418399;32;20069;-63
2021/11/10 00:55:24;;;;;;;4.55;1.73;;;5.00;99.90;;;;;;4420394;32;20106;-63
2021/11/10 00:57:51;;;;;;;1.10;0.95;;;5.00;99.90;;;;;;4422667;32;20085;-64
2021/11/10 01:00:18;;;;;;;0.65;0.50;;;5.00;99.90;;;;;;4404124;32;20062;-64
2021/11/10 01:02:44;;;;;;;0.90;0.90;;;5.00;99.90;;;;;;4404748;32;20061;-63
2021/11/10 01:05:10;;;;;;;3.62;1.30;;;5.00;99.90;;;;;;4414514;32;20094;-64
2021/11/10 01:07:36;;;;;;;0.40;0.40;;;4.90;99.90;;;;;;4393006;32;20137;-63
2021/11/10 01:10:03;;;;;;;4.93;1.45;;;4.90;99.90;;;;;;4418109;32;20082;-63
2021/11/10 01:12:29;;;;;;;0.50;0.50;;;4.90;99.90;;;;;;4413027;32;20161;-63
2021/11/10 01:14:55;;;;;;;3.78;1.37;;;4.90;99.90;;;;;;4420891;32;20069;-63
2021/11/10 01:17:21;;;;;;;0.30;0.30;;;4.90;99.90;;;;;;4409430;32;20530;-64
2021/11/10 01:19:47;;;;;;;0.40;0.40;;;4.80;99.90;;;;;;4410602;32;20157;-64
2021/11/10 01:22:13;;;;;;;0.85;0.77;;;4.80;99.90;;;;;;4419433;32;20495;-64
2021/11/10 01:24:39;;;;;;;0.40;0.40;;;4.70;99.90;;;;;;4410753;32;20257;-64
2021/11/10 01:27:05;;;;;;;1.35;1.25;;;4.60;99.90;;;;;;4407248;32;20095;-64
2021/11/10 01:29:31;;;;;;;3.37;1.00;;;4.60;99.90;;;;;;4402080;32;20081;-63
2021/11/10 01:31:56;;;;;;;0.60;0.60;;;4.50;99.90;;;;;;4423941;32;20074;-64
2021/11/10 01:34:22;;;;;;;0.62;0.62;;;4.60;99.90;;;;;;4429057;32;20090;-64
2021/11/10 01:36:48;;;;;;;1.33;1.05;;;4.70;99.90;;;;;;4420323;32;20065;-64
2021/11/10 01:39:13;;;;;;;0.77;0.77;;;4.60;99.90;;;;;;4413738;32;20507;-64
2021/11/10 01:41:43;;;;;;;0.43;0.43;;;4.60;99.90;;;;;;4405506;32;20082;-63
2021/11/10 01:44:18;;;;;;;0.68;0.68;;;4.60;99.90;;;;;;4400776;32;20085;-64
2021/11/10 01:46:44;;;;;;;2.72;1.15;;;4.50;99.90;;;;;;4403011;32;20082;-64
2021/11/10 01:49:10;;;;;;;0.80;0.80;;;4.50;99.90;;;;;;4421167;32;20061;-64
2021/11/10 01:51:42;;;;;;;2.62;1.20;;;4.60;99.90;;;;;;4405093;32;20062;-64
2021/11/10 01:54:10;;;;;;;0.50;0.50;;;4.50;99.90;;;;;;4395777;32;20081;-63
2021/11/10 01:56:35;;;;;;;0.55;0.55;;;4.50;99.90;;;;;;4415116;32;20414;-64
2021/11/10 01:59:01;;;;;;;1.08;0.73;;;4.60;99.90;;;;;;4420250;32;20067;-64
2021/11/10 02:01:26;;;;;;;0.85;0.77;;;4.60;99.90;;;;;;4416555;32;20089;-64
2021/11/10 02:03:53;;;;;;;0.75;0.75;;;4.70;99.90;;;;;;4415321;32;20073;-64
2021/11/10 02:06:18;;;;;;;0.45;0.45;;;4.60;99.90;;;;;;4418491;32;20085;-64
2021/11/10 02:08:44;;;;;;;2.95;1.37;;;4.50;99.90;;;;;;4413733;32;20071;-64
2021/11/10 02:11:11;;;;;;;0.50;0.50;;;4.50;99.90;;;;;;4421585;32;20139;-63
2021/11/10 02:13:37;;;;;;;0.62;0.62;;;4.60;99.90;;;;;;4396191;32;20498;-63
2021/11/10 02:16:02;;;;;;;3.67;1.67;;;4.60;99.90;;;;;;4410294;32;20090;-63
2021/11/10 02:18:28;;;;;;;0.77;0.77;;;4.50;99.90;;;;;;4418965;32;20077;-63
2021/11/10 02:20:53;;;;;;;0.73;0.68;;;4.60;99.90;;;;;;4419273;32;20114;-63
2021/11/10 02:23:19;;;;;;;1.30;1.05;;;4.60;99.90;;;;;;4416211;32;20076;-63
2021/11/10 02:25:45;;;;;;;0.70;0.70;;;4.50;99.90;;;;;;4414030;32;20069;-63
2021/11/10 02:28:11;;;;;;;1.25;0.90;;;4.50;99.90;;;;;;4386315;32;20074;-64
2021/11/10 02:30:36;;;;;;;0.55;0.55;;;4.50;99.90;;;;;;4424036;32;20065;-64
2021/11/10 02:33:04;;;;;;;1.45;1.08;;;4.40;99.90;;;;;;4415758;32;20074;-64
2021/11/10 02:35:31;;;;;;;0.50;0.50;;;4.40;99.90;;;;;;4408013;32;20066;-65
2021/11/10 02:38:00;;;;;;;0.60;0.60;;;4.40;99.90;;;;;;4391749;32;20139;-64
2021/11/10 02:40:27;;;;;;;1.40;1.30;;;4.50;99.90;;;;;;4394512;32;20524;-64
2021/11/10 02:42:54;;;;;;;1.80;0.98;;;4.50;99.90;;;;;;4427316;32;20077;-64
2021/11/10 02:45:21;;;;;;;0.65;0.65;;;4.50;99.90;;;;;;4411493;32;20070;-64
2021/11/10 02:47:47;;;;;;;0.93;0.93;;;4.50;99.90;;;;;;4413045;32;20081;-64
2021/11/10 02:50:13;;;;;;;1.33;1.25;;;4.50;99.90;;;;;;4407117;32;20420;-64
2021/11/10 02:52:39;;;;;;;0.30;0.30;;;4.50;99.90;;;;;;4420546;32;20112;-64
2021/11/10 02:55:05;;;;;;;0.60;0.60;;;4.40;99.90;;;;;;4424403;32;20077;-64
2021/11/10 02:57:30;;;;;;;1.67;1.27;;;4.40;99.90;;;;;;4404032;32;20132;-65
2021/11/10 02:59:56;;;;;;;0.85;0.82;;;4.40;99.90;;;;;;4410615;32;20074;-64
2021/11/10 03:02:25;;;;;;;2.92;0.60;;;4.30;99.90;;;;;;4407700;32;20073;-64
2021/11/10 03:04:50;;;;;;;2.50;1.12;;;4.40;99.90;;;;;;4406757;32;20090;-64
2021/11/10 03:07:16;;;;;;;0.52;0.52;;;4.40;99.90;;;;;;4417947;32;20070;-64
2021/11/10 03:09:43;;;;;;;0.45;0.45;;;4.40;99.90;;;;;;4417695;32;20132;-64
2021/11/10 03:12:10;;;;;;;0.68;0.68;;;4.40;99.90;;;;;;4420081;32;20112;-65
2021/11/10 03:14:39;;;;;;;0.55;0.55;;;4.30;99.90;;;;;;4394703;32;20086;-64
2021/11/10 03:17:07;;;;;;;0.50;0.50;;;4.30;99.90;;;;;;4407167;32;20061;-64
2021/11/10 03:19:33;;;;;;;0.90;0.75;;;4.20;99.90;;;;;;4396198;32;20065;-64
2021/11/10 03:21:59;;;;;;;0.30;0.30;;;4.10;99.90;;;;;;4401128;32;20188;-64
2021/11/10 03:24:25;;;;;;;0.98;0.90;;;4.10;99.90;;;;;;4404944;32;20110;-64
2021/11/10 03:26:51;;;;;;;0.60;0.60;;;4.00;99.90;;;;;;4400775;32;20096;-64
2021/11/10 03:29:16;;;;;;;3.42;1.70;;;4.10;99.90;;;;;;4400264;32;20066;-64
2021/11/10 03:31:42;;;;;;;0.60;0.60;;;4.10;99.90;;;;;;4418433;32;20282;-64
2021/11/10 03:34:09;;;;;;;0.57;0.57;;;4.10;99.90;;;;;;4419852;32;20152;-64
2021/11/10 03:36:35;;;;;;;0.57;0.57;;;4.10;99.90;;;;;;4412503;32;20058;-64
2021/11/10 03:39:03;;;;;;;0.85;0.85;;;4.10;99.90;;;;;;4425276;32;20061;-63
2021/11/10 03:41:28;;;;;;;1.58;0.93;;;4.10;99.90;;;;;;4410957;32;20069;-63
2021/11/10 03:43:54;;;;;;;0.50;0.50;;;4.00;99.90;;;;;;4404052;32;20409;-64
2021/11/10 03:46:22;;;;;;;2.20;1.42;;;4.00;99.90;;;;;;4416477;32;20082;-63
2021/11/10 03:48:48;;;;;;;0.77;0.77;;;3.90;99.90;;;;;;4405480;32;20424;-63
2021/11/10 03:51:14;;;;;;;1.27;0.70;;;3.80;99.90;;;;;;4410432;32;20081;-64
2021/11/10 03:53:40;;;;;;;0.52;0.52;;;3.90;99.90;;;;;;4397671;32;20077;-63
2021/11/10 03:56:05;;;;;;;5.15;1.33;;;3.90;99.90;;;;;;4423954;32;20112;-63
2021/11/10 03:58:33;;;;;;;0.40;0.40;;;3.90;99.90;;;;;;4424637;32;20402;-63
2021/11/10 04:00:59;;;;;;;1.17;0.88;;;3.80;99.90;;;;;;4407779;32;20137;-63
2021/11/10 04:03:25;;;;;;;1.80;1.60;;;3.80;99.90;;;;;;4420101;32;20127;-64
2021/11/10 04:05:51;;;;;;;0.75;0.70;;;3.70;99.90;;;;;;4418926;32;20522;-64
2021/11/10 04:08:17;;;;;;;0.50;0.50;;;3.70;99.90;;;;;;4417030;32;20110;-63
2021/11/10 04:10:43;;;;;;;0.65;0.62;;;3.70;99.90;;;;;;4419732;32;20069;-63
2021/11/10 04:13:08;;;;;;;1.37;1.12;;;3.70;99.90;;;;;;4419581;32;20097;-64
2021/11/10 04:15:34;;;;;;;0.40;0.40;;;3.80;99.90;;;;;;4421975;32;20070;-64
2021/11/10 04:18:00;;;;;;;0.80;0.80;;;3.90;99.90;;;;;;4403273;32;20086;-63
2021/11/10 04:20:25;;;;;;;0.70;0.70;;;3.80;99.90;;;;;;4401158;32;20065;-64
2021/11/10 04:22:52;;;;;;;0.40;0.40;;;3.70;99.90;;;;;;4418425;32;20152;-63
2021/11/10 04:25:18;;;;;;;0.80;0.80;;;3.60;99.90;;;;;;4400244;32;20140;-63
2021/11/10 04:27:43;;;;;;;0.60;0.60;;;3.60;99.90;;;;;;4429495;32;20132;-63
2021/11/10 04:30:11;;;;;;;0.40;0.40;;;3.60;99.90;;;;;;4410967;32;20157;-63
2021/11/10 04:32:37;;;;;;;1.12;1.02;;;3.70;99.90;;;;;;4410079;32;82132;-63
2021/11/10 04:35:05;;;;;;;0.52;0.52;;;3.60;99.90;;;;;;4403046;32;20069;-63
2021/11/10 04:37:31;;;;;;;1.15;1.05;;;3.60;99.90;;;;;;4418237;32;20467;-62
2021/11/10 04:39:56;;;;;;;0.40;0.40;;;3.60;99.90;;;;;;4415613;32;20093;-63
2021/11/10 04:42:22;;;;;;;0.43;0.43;;;3.50;99.90;;;;;;4419538;32;20370;-62
2021/11/10 04:44:52;;;;;;;0.62;0.62;;;3.40;99.90;;;;;;4422924;32;20062;-62
2021/11/10 04:47:17;;;;;;;18.50;1.58;;;3.40;99.90;;;;;;4424033;32;20081;-64
2021/11/10 04:49:42;;;;;;;0.60;0.60;;;3.40;99.90;;;;;;4411356;32;20101;-63
2021/11/10 04:52:09;;;;;;;0.70;0.70;;;3.40;99.90;;;;;;4426400;32;20200;-63
2021/11/10 04:54:35;;;;;;;0.40;0.40;;;3.30;99.90;;;;;;4421223;32;20567;-63
2021/11/10 04:57:01;;;;;;;1.67;1.48;;;3.40;99.90;;;;;;4404451;32;20085;-63
2021/11/10 04:59:27;;;;;;;0.50;0.50;;;3.40;99.90;;;;;;4403682;32;20062;-63
2021/11/10 05:04:36;;;;;;;0.30;0.30;;;3.30;99.90;;;;;;4414159;32;20045;-63
2021/11/10 05:07:02;;;;;;;0.37;0.37;;;3.40;99.90;;;;;;4409931;32;20385;-63
2021/11/10 05:09:28;;;;;;;0.62;0.62;;;3.40;99.90;;;;;;4410811;32;20102;-63
2021/11/10 05:11:53;;;;;;;0.70;0.70;;;3.40;99.90;;;;;;4400672;32;20066;-63
2021/11/10 05:14:20;;;;;;;0.85;0.85;;;3.40;99.90;;;;;;4409502;32;20131;-63
2021/11/10 05:16:46;;;;;;;0.62;0.62;;;3.40;99.90;;;;;;4411735;32;20555;-63
2021/11/10 05:19:11;;;;;;;0.50;0.50;;;3.40;99.90;;;;;;4416377;32;20058;-63
2021/11/10 05:21:37;;;;;;;0.55;0.55;;;3.30;99.90;;;;;;4399633;32;20054;-64
2021/11/10 05:24:03;;;;;;;0.82;0.73;;;3.20;99.90;;;;;;4399638;32;20230;-64
2021/11/10 05:26:30;;;;;;;0.68;0.68;;;3.30;99.90;;;;;;4402099;32;20548;-64
2021/11/10 05:28:56;;;;;;;9.43;1.48;;;3.40;99.90;;;;;;4416734;32;20062;-64
2021/11/10 05:31:21;;;;;;;3.28;1.37;;;3.40;99.90;;;;;;4414192;32;20120;-63
2021/11/10 05:33:47;;;;;;;0.62;0.62;;;3.50;99.90;;;;;;4415731;32;20549;-64
2021/11/10 05:36:12;;;;;;;0.55;0.55;;;3.60;99.90;;;;;;4416813;32;20945;-63
2021/11/10 05:38:38;;;;;;;1.92;0.80;;;3.60;99.90;;;;;;4417304;32;20073;-65
2021/11/10 05:41:03;;;;;;;0.50;0.50;;;3.70;99.90;;;;;;4409595;32;20128;-64
2021/11/10 05:43:29;;;;;;;1.12;0.80;;;3.60;99.90;;;;;;4422516;32;20060;-64
2021/11/10 05:45:55;;;;;;;2.05;0.88;;;3.60;99.90;;;;;;4414455;32;20081;-64
2021/11/10 05:48:20;;;;;;;1.62;1.02;;;3.60;99.90;;;;;;4413934;32;20253;-64
2021/11/10 05:50:46;;;;;;;0.73;0.73;;;3.50;99.90;;;;;;4412586;32;20069;-64
2021/11/10 05:53:12;;;;;;;7.40;1.05;;;3.40;99.90;;;;;;4426603;32;20143;-65
2021/11/10 05:55:40;;;;;;;0.85;0.65;;;3.50;99.90;;;;;;4414049;32;20062;-65
2021/11/10 05:58:05;;;;;;;0.40;0.40;;;3.50;99.90;;;;;;4419430;32;20094;-64
2021/11/10 06:00:32;;;;;;;0.40;0.40;;;3.50;99.90;;;;;;4413311;32;20074;-64
2021/11/10 06:02:57;;;;;;;0.80;0.80;;;3.40;99.90;;;;;;4392469;32;20558;-64
2021/11/10 06:05:23;;;;;;;1.27;1.17;;;3.40;99.90;;;;;;4405905;32;20070;-64
2021/11/10 06:07:49;;;;;;;0.70;0.70;;;3.40;99.90;;;;;;4396440;32;20086;-64
2021/11/10 06:10:16;;;;;;;0.90;0.90;;;3.60;99.90;;;;;;4426792;32;20440;-64
2021/11/10 06:12:42;;;;;;;0.45;0.45;;;3.60;99.90;;;;;;4395500;32;20374;-64
2021/11/10 06:15:08;;;;;;;0.95;0.85;;;3.50;99.90;;;;;;4403936;32;20093;-64
2021/11/10 06:17:34;;;;;;;0.60;0.60;;;3.50;99.90;;;;;;4388851;32;20098;-64
2021/11/10 06:20:02;;;;;;;0.80;0.77;;;3.40;99.90;;;;;;4407111;32;20093;-64
2021/11/10 06:22:28;;;;;;;4.53;1.40;;;3.40;99.90;;;;;;4408867;32;20082;-65
2021/11/10 06:24:54;;;;;;;0.60;0.60;;;3.40;99.90;;;;;;4409411;32;20128;-64
2021/11/10 06:27:20;;;;;;;3.70;1.52;;;3.30;99.90;;;;;;4389148;32;20436;-64
2021/11/10 06:29:45;;;;;;;0.47;0.47;;;3.30;99.90;;;;;;4383004;32;20153;-64
2021/11/10 06:32:12;;;;;;;0.93;0.62;;;3.30;99.90;;;;;;4383689;32;20086;-64
2021/11/10 06:34:38;;;;;;;0.32;0.32;;;3.20;99.90;;;;;;4407375;32;20066;-64
2021/11/10 06:37:04;;;;;;;0.70;0.70;;;3.20;99.90;;;;;;4389640;32;20141;-64
2021/11/10 06:39:30;;;;;;;0.57;0.57;;;3.40;99.90;;;;;;4384760;32;20098;-64
2021/11/10 06:41:56;;;;;;;0.52;0.52;;;3.50;99.90;;;;;;4396202;32;20077;-65
2021/11/10 06:44:21;;;;;;;0.70;0.70;;;3.50;99.90;;;;;;4401887;32;20332;-64
2021/11/10 06:46:47;;;;;;;4.72;2.15;;;3.60;99.90;;;;;;4402721;32;20449;-64
2021/11/10 06:49:13;;;;;;;0.55;0.50;;;3.60;99.90;;;;;;4399092;32;20586;-64
2021/11/10 06:51:39;;;;;;;1.23;1.12;;;3.60;99.90;;;;;;4387327;32;20143;-63
2021/11/10 06:54:06;;;;;;;0.55;0.55;;;3.60;99.90;;;;;;4401619;32;20267;-64
2021/11/10 06:56:31;;;;;;;0.68;0.68;;;3.60;99.90;;;;;;4395487;32;20085;-66
2021/11/10 06:58:58;;;;;;;0.68;0.68;;;3.60;99.90;;;;;;4367442;32;20462;-64
2021/11/10 07:01:23;;;;;;;1.08;0.70;;;3.60;99.90;;;;;;4393256;32;20237;-65
2021/11/10 07:03:49;;;;;;;0.50;0.50;;;3.50;99.90;;;;;;4393314;32;20097;-65
2021/11/10 07:06:15;;;;;;;0.62;0.62;;;3.50;99.90;;;;;;4395593;32;20094;-66
2021/11/10 07:08:41;;;;;;;1.35;1.25;;;3.60;99.90;;;;;;4397537;32;20094;-66
2021/11/10 07:11:07;;;;;;;0.60;0.60;;;3.60;99.90;;;;;;4384850;32;20229;-64
2021/11/10 07:13:32;;;;;;;4.28;1.35;;;3.80;99.90;;;;;;4378575;32;20821;-65
2021/11/10 07:15:58;;;;;;;0.55;0.55;;;3.90;99.90;;;;;;4384400;32;20101;-66
2021/11/10 07:18:23;;;;;;;3.70;1.10;;;4.10;99.90;;;;;;4392897;32;20705;-66
2021/11/10 07:20:49;;;;;;;1.48;0.98;;;4.10;99.90;;;;;;4396616;32;20425;-66
2021/11/10 07:23:14;;;;;;;1.20;1.05;;;4.10;99.90;;;;;;4367792;32;20090;-66
2021/11/10 07:25:40;;;;;;;0.90;0.90;;;4.10;99.90;;;;;;4398890;32;20170;-65
2021/11/10 07:28:05;;;;;;;1.00;0.95;;;4.10;99.90;;;;;;4395656;32;20074;-64
2021/11/10 07:30:31;;;;;;;0.85;0.85;;;4.20;99.90;;;;;;4392113;32;20224;-64
2021/11/10 07:32:57;;;;;;;1.10;0.80;;;4.20;99.90;;;;;;4385982;32;20082;-65
2021/11/10 07:35:22;;;;;;;5.82;2.55;;;4.30;99.90;;;;;;4399073;32;20086;-65
2021/11/10 07:37:48;;;;;;;1.20;1.05;;;4.40;99.90;;;;;;4398159;32;20432;-65
2021/11/10 07:40:16;;;;;;;0.65;0.65;;;4.50;99.90;;;;;;4388914;32;20124;-65
2021/11/10 07:42:42;;;;;;;0.55;0.55;;;4.50;99.90;;;;;;4396355;32;21424;-65
2021/11/10 07:45:11;;;;;;;1.40;0.98;;;4.50;99.90;;;;;;4400554;32;20105;-65
2021/11/10 07:47:41;;;;;;;2.80;1.27;;;4.50;99.90;;;;;;4396105;32;20141;-65
2021/11/10 07:50:10;;;;;;;0.75;0.65;;;4.60;99.90;;;;;;4399066;32;20449;-64
2021/11/10 07:52:36;;;;;;;1.73;0.75;;;4.60;99.90;;;;;;4386476;32;20062;-65
2021/11/10 07:55:03;;;;;;;1.67;1.37;;;4.70;99.90;;;;;;4381502;32;20665;-65
2021/11/10 07:57:28;;;;;;;0.50;0.50;;;4.80;99.90;;;;;;4388039;32;20572;-65
2021/11/10 07:59:54;;;;;;;3.40;1.73;;;4.90;99.90;;;;;;4387381;32;20113;-65
2021/11/10 08:02:21;;;;;;;1.65;0.73;;;5.00;99.90;;;;;;4390313;32;20462;-65
2021/11/10 08:04:47;;;;;;;0.40;0.40;;;5.00;99.90;;;;;;4387176;32;20352;-66
2021/11/10 08:07:12;;;;;;;2.25;0.70;;;5.00;99.90;;;;;;4390132;32;21287;-65
2021/11/10 08:09:38;;;;;;;0.77;0.77;;;5.10;99.90;;;;;;4393169;32;20094;-65
2021/11/10 08:12:03;;;;;;;4.53;0.85;;;5.20;99.90;;;;;;4387778;32;20198;-65
2021/11/10 08:14:29;;;;;;;4.20;0.95;;;5.30;99.90;;;;;;4387647;32;20105;-64
2021/11/10 08:16:55;;;;;;;0.50;0.50;;;5.30;99.90;;;;;;4377205;32;22185;-64
2021/11/10 08:19:21;;;;;;;0.77;0.77;;;5.40;99.90;;;;;;4377940;32;20080;-65
2021/11/10 08:21:46;;;;;;;1.15;1.15;;;5.40;99.90;;;;;;4388886;32;20090;-65
2021/11/10 08:24:12;;;;;;;0.40;0.40;;;5.40;99.90;;;;;;4384928;32;20086;-65
2021/11/10 08:26:37;;;;;;;1.12;1.00;;;5.60;99.90;;;;;;4379518;32;20070;-64
2021/11/10 08:29:03;;;;;;;0.88;0.88;;;5.70;99.90;;;;;;4388781;32;20082;-64
2021/11/10 08:31:29;;;;;;;2.55;1.12;;;5.70;99.90;;;;;;4354961;32;20082;-65
2021/11/10 08:33:54;;;;;;;1.40;1.30;;;5.70;99.90;;;;;;4381614;32;20338;-64
2021/11/10 08:36:20;;;;;;;1.60;1.00;;;5.70;99.90;;;;;;4391469;32;20518;-65
2021/11/10 08:38:45;;;;;;;3.95;1.40;;;5.80;99.90;;;;;;4388278;32;20154;-66
2021/11/10 08:41:11;;;;;;;23.55;1.45;;;5.90;99.90;;;;;;4387737;32;20174;-66
2021/11/10 08:43:37;;;;;;;0.73;0.73;;;6.10;99.90;;;;;;4384734;32;20825;-66
2021/11/10 08:46:02;;;;;;;0.80;0.80;;;6.20;99.90;;;;;;4392030;32;20109;-65
2021/11/10 08:48:28;;;;;;;0.75;0.70;;;6.20;99.90;;;;;;4392846;32;20930;-67
2021/11/10 08:50:55;;;;;;;0.80;0.50;;;6.40;99.90;;;;;;4379733;32;20630;-65
2021/11/10 08:53:22;;;;;;;5.05;1.20;;;6.50;99.90;;;;;;4384074;32;20112;-64
2021/11/10 08:55:51;;;;;;;1.42;1.15;;;6.20;99.90;;;;;;4385599;32;20114;-65
2021/11/10 08:58:17;;;;;;;0.75;0.75;;;6.00;99.90;;;;;;4393176;32;20118;-65
2021/11/10 09:00:43;;;;;;;0.73;0.73;;;6.00;99.90;;;;;;4396803;32;20090;-65
2021/11/10 09:03:09;;;;;;;4.07;1.10;;;6.30;99.90;;;;;;4387701;32;20123;-65
2021/11/10 09:05:35;;;;;;;4.28;2.35;;;6.50;99.90;;;;;;4378729;32;20107;-65
2021/11/10 09:08:01;;;;;;;1.75;1.10;;;6.70;99.90;;;;;;4384867;32;20089;-66
2021/11/10 09:10:27;;;;;;;0.70;0.70;;;6.90;99.90;;;;;;4381856;32;20791;-66
2021/11/10 09:12:53;;;;;;;1.73;1.33;;;7.10;99.90;;;;;;4382813;32;20078;-65
2021/11/10 09:15:21;;;;;;;22.23;2.45;;;7.20;99.90;;;;;;4377168;32;21175;-65
2021/11/10 09:17:48;;;;;;;3.70;0.88;;;7.20;99.90;;;;;;4387206;32;20092;-65
2021/11/10 09:20:23;;;;;;;1.52;1.15;;;7.40;99.90;;;;;;4399052;32;20101;-65
2021/11/10 09:22:49;;;;;;;0.95;0.88;;;7.20;99.90;;;;;;4382272;32;20148;-65
2021/11/10 09:25:17;;;;;;;2.22;0.75;;;7.30;99.90;;;;;;4386464;32;20066;-65
2021/11/10 09:27:43;;;;;;;0.60;0.60;;;7.30;99.90;;;;;;4395643;32;20078;-65
2021/11/10 09:30:13;;;;;;;1.37;1.17;;;7.10;99.90;;;;;;4383640;32;20500;-65
2021/11/10 09:32:39;;;;;;;0.62;0.62;;;6.80;99.90;;;;;;4390058;32;20189;-65
2021/11/10 09:35:07;;;;;;;1.42;1.12;;;6.90;99.90;;;;;;4396768;32;20292;-65
2021/11/10 09:37:33;;;;;;;0.77;0.77;;;7.10;99.90;;;;;;4380669;32;20103;-65
2021/11/10 09:40:00;;;;;;;9.57;2.30;;;7.10;99.90;;;;;;4384432;32;20127;-65
2021/11/10 09:42:27;;;;;;;0.82;0.82;;;7.20;99.90;;;;;;4389523;32;20562;-66
2021/11/10 09:44:54;;;;;;;2.53;0.85;;;7.30;99.90;;;;;;4401552;32;20206;-65
2021/11/10 09:47:20;;;;;;;6.60;1.80;;;7.30;99.90;;;;;;4385760;32;20089;-65
2021/11/10 09:49:49;;;;;;;0.55;0.55;;;7.30;99.90;;;;;;4375112;32;20716;-66
2021/11/10 09:52:15;;;;;;;1.77;0.95;;;7.50;99.90;;;;;;4386993;32;20484;-65
2021/11/10 09:54:41;;;;;;;5.55;0.90;;;7.60;99.90;;;;;;4387025;32;20077;-65
2021/11/10 09:57:07;;;;;;;0.85;0.70;;;7.60;99.90;;;;;;4403083;32;20097;-66
2021/11/10 09:59:35;;;;;;;0.62;0.62;;;7.60;99.90;;;;;;4404101;32;20101;-65
2021/11/10 10:02:00;;;;;;;0.60;0.60;;;7.90;99.90;;;;;;4393715;32;20105;-65
2021/11/10 10:04:27;;;;;;;0.70;0.70;;;8.10;99.90;;;;;;4401214;32;20153;-65
2021/11/10 10:06:53;;;;;;;3.33;1.65;;;8.20;99.90;;;;;;4402272;32;20105;-65
2021/11/10 10:09:19;;;;;;;1.00;1.00;;;8.20;99.90;;;;;;4401160;32;20578;-65
2021/11/10 10:11:45;;;;;;;3.72;1.00;;;8.40;99.90;;;;;;4398917;32;20090;-65
2021/11/10 10:14:10;;;;;;;0.65;0.65;;;8.60;99.90;;;;;;4396150;32;20110;-65
2021/11/10 10:16:37;;;;;;;0.70;0.70;;;8.70;99.90;;;;;;4394022;32;20074;-66
2021/11/10 10:19:06;;;;;;;0.95;0.85;;;8.90;99.90;;;;;;4398575;32;20479;-66
2021/11/10 10:21:33;;;;;;;0.57;0.57;;;9.00;99.90;;;;;;4389544;32;20097;-67
2021/11/10 10:23:59;;;;;;;0.95;0.95;;;8.70;99.90;;;;;;4376853;32;20233;-66
2021/11/10 10:26:26;;;;;;;3.55;1.60;;;8.90;99.90;;;;;;4386269;32;20252;-67
2021/11/10 10:28:54;;;;;;;1.05;0.95;;;9.00;99.90;;;;;;4370638;32;20131;-66
2021/11/10 10:31:23;;;;;;;3.37;1.48;;;9.00;99.90;;;;;;4390550;32;20131;-66
2021/11/10 10:33:54;;;;;;;0.70;0.70;;;9.10;99.90;;;;;;4388024;32;20188;-67
2021/11/10 10:36:22;;;;;;;0.77;0.68;;;9.20;99.90;;;;;;4361892;32;20105;-67
2021/11/10 10:38:55;;;;;;;1.95;1.12;;;9.20;99.90;;;;;;4387413;32;20086;-69
2021/11/10 10:41:31;;;;;;;0.50;0.50;;;9.30;99.90;;;;;;4393358;32;20155;-67
2021/11/10 10:44:04;;;;;;;1.52;0.77;;;9.40;99.90;;;;;;4380861;32;20082;-67
2021/11/10 10:46:32;;;;;;;2.67;1.42;;;9.70;99.90;;;;;;4376223;32;20201;-67
2021/11/10 10:49:38;;;;;;;1.50;1.00;;;9.70;99.90;;;;;;4390542;32;20106;-66
2021/11/10 10:52:11;;;;;;;0.60;0.60;;;9.40;99.90;;;;;;4380952;32;20165;-66
2021/11/10 10:54:38;;;;;;;2.05;0.85;;;9.60;99.90;;;;;;4377042;32;20500;-65
2021/11/10 10:57:04;;;;;;;1.42;0.80;;;9.70;99.90;;;;;;4377516;32;20098;-66
2021/11/10 10:59:31;;;;;;;0.98;0.60;;;9.90;99.90;;;;;;4396720;32;20144;-65
2021/11/10 11:02:00;;;;;;;0.57;0.57;;;10.10;99.90;;;;;;4390264;32;20455;-66
2021/11/10 11:04:29;;;;;;;1.42;1.17;;;10.30;99.90;;;;;;4392172;32;20073;-67
2021/11/10 11:07:02;;;;;;;1.20;1.02;;;10.40;99.90;;;;;;4386007;32;20144;-66
2021/11/10 11:09:31;;;;;;;0.85;0.77;;;10.40;99.90;;;;;;4393785;32;20767;-66
2021/11/10 11:12:02;;;;;;;2.78;1.58;;;10.40;99.90;;;;;;4394645;32;20089;-67
2021/11/10 11:15:05;;;;;;;2.05;1.20;;;10.40;99.90;;;;;;4382150;32;20066;-66
2021/11/10 11:17:21;;;;;;;0.65;0.65;;;10.60;99.90;;;;;;4368296;32;20249;-66
2021/11/10 11:19:49;;;;;;;1.80;1.08;;;10.90;99.90;;;;;;4394125;32;20173;-66
2021/11/10 11:22:15;;;;;;;22.95;1.50;;;10.80;99.90;;;;;;4390732;32;20141;-68
2021/11/10 11:24:43;;;;;;;3.05;0.77;;;10.70;99.90;;;;;;4402352;32;20369;-67
2021/11/10 11:27:19;;;;;;;0.57;0.57;;;10.90;99.90;;;;;;4380623;32;20808;-67
2021/11/10 11:29:52;;;;;;;1.37;1.12;;;10.80;99.90;;;;;;4385359;32;20065;-67
2021/11/10 11:32:21;;;;;;;0.50;0.50;;;10.90;99.90;;;;;;4400413;32;20483;-67
2021/11/10 11:35:03;;;;;;;1.62;1.35;;;11.20;99.90;;;;;;4398747;32;20097;-67
2021/11/10 11:37:29;;;;;;;1.37;1.27;;;11.30;99.90;;;;;;4384402;32;20070;-66
2021/11/10 11:39:58;;;;;;;0.60;0.60;;;11.10;99.90;;;;;;4387445;32;20094;-66
2021/11/10 11:42:26;;;;;;;0.62;0.55;;;11.50;99.90;;;;;;4402506;32;20073;-66
2021/11/10 11:44:53;;;;;;;1.95;0.93;;;11.40;99.90;;;;;;4383285;32;20443;-66
2021/11/10 11:47:18;;;;;;;5.10;1.00;;;11.20;99.90;;;;;;4400578;32;20081;-67
2021/11/10 11:49:47;;;;;;;0.50;0.50;;;11.30;99.90;;;;;;4394457;32;20113;-66
2021/11/10 11:52:14;;;;;;;0.50;0.50;;;11.40;99.90;;;;;;4401793;32;20065;-67
2021/11/10 11:54:42;;;;;;;0.75;0.70;;;11.40;99.90;;;;;;4383078;32;20066;-67
2021/11/10 11:57:10;;;;;;;0.68;0.68;;;11.60;99.90;;;;;;4380535;32;20536;-67
2021/11/10 11:59:39;;;;;;;3.55;1.73;;;11.70;99.90;;;;;;4385810;32;20405;-67
2021/11/10 12:02:26;;;;;;;1.37;1.10;;;12.20;99.90;;;;;;4397974;32;20088;-68
2021/11/10 12:04:53;;;;;;;2.72;0.80;;;12.20;99.90;;;;;;4369009;32;20115;-67
2021/11/10 12:07:41;;;;;;;0.85;0.73;;;12.10;99.90;;;;;;4387777;32;20470;-67
2021/11/10 12:10:25;;;;;;;2.95;1.25;;;12.20;99.90;;;;;;4374512;32;20827;-67
2021/11/10 12:13:10;;;;;;;0.55;0.55;;;12.70;99.90;;;;;;4377797;32;20683;-67
2021/11/10 12:15:59;;;;;;;0.88;0.70;;;12.80;99.90;;;;;;4392981;32;20276;-67
2021/11/10 12:18:25;;;;;;;1.27;0.90;;;13.10;99.90;;;;;;4379884;32;20209;-67
2021/11/10 12:21:01;;;;;;;0.82;0.82;;;13.10;99.90;;;;;;4379917;32;20523;-67
2021/11/10 12:23:55;;;;;;;0.60;0.60;;;13.10;99.90;;;;;;4399300;32;20180;-67
2021/11/10 12:26:27;;;;;;;0.60;0.60;;;12.80;99.90;;;;;;4389515;32;20094;-67
2021/11/10 12:28:56;;;;;;;1.10;1.00;;;12.40;99.90;;;;;;4407797;32;20369;-68
2021/11/10 12:31:28;;;;;;;0.80;0.80;;;12.40;99.90;;;;;;4398415;32;20156;-67
2021/11/10 12:33:57;;;;;;;1.55;1.02;;;12.20;99.90;;;;;;4382504;32;20118;-67
2021/11/10 12:36:50;;;;;;;0.82;0.82;;;12.30;99.90;;;;;;4399033;32;20073;-67
2021/11/10 12:39:27;;;;;;;0.93;0.93;;;12.10;99.90;;;;;;4391125;32;20101;-66
2021/11/10 12:41:58;;;;;;;2.35;1.15;;;12.20;99.90;;;;;;4399236;32;20787;-67
2021/11/10 12:44:45;;;;;;;6.40;1.02;;;12.20;99.90;;;;;;4393726;32;20133;-66
2021/11/10 12:47:12;;;;;;;3.95;0.82;;;12.10;99.90;;;;;;4377646;32;20109;-67
2021/11/10 12:49:39;;;;;;;1.87;1.05;;;12.10;99.90;;;;;;4395334;32;20161;-66
2021/11/10 12:52:15;;;;;;;1.92;0.98;;;11.90;99.90;;;;;;4383122;32;20077;-68
2021/11/10 12:54:44;;;;;;;1.58;0.73;;;11.50;99.90;;;;;;4398838;32;20077;-67
2021/11/10 12:57:11;;;;;;;0.73;0.70;;;11.30;99.90;;;;;;4395919;32;20077;-66
2021/11/10 12:59:46;;;;;;;1.05;0.75;;;11.30;99.90;;;;;;4394454;32;20422;-66